Time;durP1;ratioP1;P1;durP2;ratioP2;P2;SDS_P1;SDS_P2;PMS_P1;PMS_P2;Temp;Humidity;BMP_temperature;BMP_pressure;BME280_temperature;BME280_humidity;BME280_pressure;Samples;Min_cycle;Max_cycle;Signal;HPM_P1;HPM_P2
2021/05/28 00:02:11;;;;;;;0.20;0.20;;;;;;;;;;5049155;28;20398;-81
2021/05/28 00:04:38;;;;;;;0.17;0.17;;;;;;;;;;5033575;28;20511;-82
2021/05/28 00:07:04;;;;;;;0.20;0.20;;;;;;;;;;5032315;28;20041;-82
2021/05/28 00:09:33;;;;;;;0.10;0.10;;;;;;;;;;5048757;28;20048;-82
2021/05/28 00:11:59;;;;;;;0.10;0.10;;;;;;;;;;5033194;28;20148;-81
2021/05/28 00:14:25;;;;;;;0.47;0.40;;;;;;;;;;5032213;28;20547;-82
2021/05/28 00:16:51;;;;;;;0.40;0.40;;;;;;;;;;5048616;28;20069;-81
2021/05/28 00:19:24;;;;;;;0.10;0.10;;;;;;;;;;5047968;28;20115;-81
2021/05/28 00:21:50;;;;;;;0.20;0.20;;;;;;;;;;5033267;28;20045;-82
2021/05/28 00:24:16;;;;;;;0.10;0.10;;;;;;;;;;5033261;28;20038;-81
2021/05/28 00:26:42;;;;;;;0.22;0.22;;;;;;;;;;5033109;28;20061;-81
2021/05/28 00:29:08;;;;;;;0.25;0.25;;;;;;;;;;5031911;28;20038;-81
2021/05/28 00:31:35;;;;;;;0.20;0.20;;;;;;;;;;5033040;28;20260;-81
2021/05/28 00:34:01;;;;;;;0.20;0.20;;;;;;;;;;5048393;28;20048;-81
2021/05/28 00:36:27;;;;;;;0.15;0.15;;;;;;;;;;5032919;28;20029;-81
2021/05/28 00:38:53;;;;;;;0.15;0.15;;;;;;;;;;5032882;28;20061;-81
2021/05/28 00:41:19;;;;;;;0.10;0.10;;;;;;;;;;5032847;28;20045;-80
2021/05/28 00:43:45;;;;;;;0.17;0.17;;;;;;;;;;5033026;28;20044;-80
2021/05/28 00:46:11;;;;;;;0.10;0.10;;;;;;;;;;5031910;28;20037;-80
2021/05/28 00:48:38;;;;;;;0.20;0.20;;;;;;;;;;5047534;28;20124;-81
2021/05/28 00:51:04;;;;;;;4.03;0.32;;;;;;;;;;5033000;28;20071;-80
2021/05/28 00:53:31;;;;;;;0.10;0.10;;;;;;;;;;5031423;28;20512;-81
2021/05/28 00:55:57;;;;;;;0.20;0.20;;;;;;;;;;5048046;28;20034;-81
2021/05/28 00:58:23;;;;;;;0.10;0.10;;;;;;;;;;5031617;28;20038;-81
2021/05/28 01:00:49;;;;;;;0.43;0.43;;;;;;;;;;5048117;28;20440;-81
2021/05/28 01:03:16;;;;;;;0.40;0.40;;;;;;;;;;5031544;28;20037;-82
2021/05/28 01:05:44;;;;;;;0.20;0.20;;;;;;;;;;5047841;28;20045;-81
2021/05/28 01:08:10;;;;;;;0.30;0.30;;;;;;;;;;5047553;28;20045;-81
2021/05/28 01:10:36;;;;;;;0.10;0.10;;;;;;;;;;5032420;28;20500;-82
2021/05/28 01:13:05;;;;;;;0.30;0.30;;;;;;;;;;5032343;28;20048;-82
2021/05/28 01:15:32;;;;;;;0.10;0.10;;;;;;;;;;5047717;28;20041;-82
2021/05/28 01:17:58;;;;;;;0.10;0.10;;;;;;;;;;5032247;28;20037;-82
2021/05/28 01:20:24;;;;;;;0.28;0.28;;;;;;;;;;5032234;28;20041;-82
2021/05/28 01:22:52;;;;;;;0.10;0.10;;;;;;;;;;5047574;28;20087;-82
2021/05/28 01:25:18;;;;;;;0.10;0.10;;;;;;;;;;5032329;28;20038;-82
2021/05/28 01:27:44;;;;;;;0.20;0.20;;;;;;;;;;5032354;28;20041;-82
2021/05/28 01:30:10;;;;;;;0.10;0.10;;;;;;;;;;5032076;28;20045;-82
2021/05/28 01:32:36;;;;;;;0.30;0.30;;;;;;;;;;5030996;28;20058;-81
2021/05/28 01:35:03;;;;;;;0.20;0.20;;;;;;;;;;5032285;28;20034;-82
2021/05/28 01:37:29;;;;;;;1.30;0.30;;;;;;;;;;5031934;28;20120;-82
2021/05/28 01:39:57;;;;;;;0.30;0.30;;;;;;;;;;5030671;28;20053;-82
2021/05/28 01:42:23;;;;;;;0.10;0.10;;;;;;;;;;5030885;28;20171;-82
2021/05/28 01:44:49;;;;;;;0.10;0.10;;;;;;;;;;5047604;28;20041;-82
2021/05/28 01:47:15;;;;;;;0.10;0.10;;;;;;;;;;5032260;28;20037;-83
2021/05/28 01:49:43;;;;;;;0.10;0.10;;;;;;;;;;5047352;28;20041;-83
2021/05/28 01:52:09;;;;;;;0.10;0.10;;;;;;;;;;5030949;28;20033;-82
2021/05/28 01:54:36;;;;;;;0.20;0.20;;;;;;;;;;5047297;28;20397;-82
2021/05/28 01:57:03;;;;;;;0.20;0.20;;;;;;;;;;5031893;28;20038;-82
2021/05/28 01:59:29;;;;;;;0.13;0.13;;;;;;;;;;5047288;28;20477;-82
2021/05/28 02:01:55;;;;;;;0.10;0.10;;;;;;;;;;5033389;28;20045;-82
2021/05/28 02:04:22;;;;;;;0.20;0.10;;;;;;;;;;5035995;28;20094;-82
2021/05/28 02:06:48;;;;;;;0.10;0.10;;;;;;;;;;5051142;28;20046;-82
2021/05/28 02:09:14;;;;;;;0.15;0.10;;;;;;;;;;5051175;28;20068;-82
2021/05/28 02:11:40;;;;;;;0.20;0.20;;;;;;;;;;5051251;28;20401;-82
2021/05/28 02:14:06;;;;;;;0.10;0.10;;;;;;;;;;5051112;28;20037;-82
2021/05/28 02:16:33;;;;;;;0.10;0.10;;;;;;;;;;5050965;28;20079;-82
2021/05/28 02:18:59;;;;;;;0.10;0.10;;;;;;;;;;5050853;28;20405;-82
2021/05/28 02:21:25;;;;;;;0.30;0.30;;;;;;;;;;5050903;28;20041;-81
2021/05/28 02:23:51;;;;;;;0.20;0.20;;;;;;;;;;5035618;28;20041;-82
2021/05/28 02:26:17;;;;;;;0.20;0.20;;;;;;;;;;5050846;28;20065;-82
2021/05/28 02:28:43;;;;;;;0.10;0.10;;;;;;;;;;5035318;28;20041;-82
2021/05/28 02:31:09;;;;;;;0.10;0.10;;;;;;;;;;5050945;28;20401;-81
2021/05/28 02:33:38;;;;;;;0.10;0.10;;;;;;;;;;5035244;28;20041;-82
2021/05/28 02:36:05;;;;;;;0.10;0.10;;;;;;;;;;5035256;28;20033;-82
2021/05/28 02:38:31;;;;;;;0.47;0.47;;;;;;;;;;5050707;28;20053;-82
2021/05/28 02:40:57;;;;;;;0.15;0.15;;;;;;;;;;5035156;28;20046;-82
2021/05/28 02:43:23;;;;;;;0.20;0.20;;;;;;;;;;5050517;28;20112;-82
2021/05/28 02:45:49;;;;;;;0.20;0.20;;;;;;;;;;5035347;28;20043;-83
2021/05/28 02:48:15;;;;;;;0.20;0.20;;;;;;;;;;5050222;28;20037;-82
2021/05/28 02:50:42;;;;;;;0.10;0.10;;;;;;;;;;5035050;28;20124;-83
2021/05/28 02:53:10;;;;;;;0.10;0.10;;;;;;;;;;5034936;28;20038;-83
2021/05/28 02:55:36;;;;;;;0.22;0.22;;;;;;;;;;5033771;28;20041;-82
2021/05/28 02:58:02;;;;;;;0.10;0.10;;;;;;;;;;5050176;28;20033;-83
2021/05/28 03:00:28;;;;;;;0.22;0.22;;;;;;;;;;5033662;28;20432;-82
2021/05/28 03:02:54;;;;;;;0.10;0.10;;;;;;;;;;5050185;28;20046;-82
2021/05/28 03:05:20;;;;;;;0.50;0.25;;;;;;;;;;5050205;28;20393;-82
2021/05/28 03:07:46;;;;;;;0.10;0.10;;;;;;;;;;5034677;28;20045;-82
2021/05/28 03:10:12;;;;;;;0.10;0.10;;;;;;;;;;5033472;28;20128;-83
2021/05/28 03:12:39;;;;;;;0.10;0.10;;;;;;;;;;5049446;28;20076;-82
2021/05/28 03:15:05;;;;;;;0.10;0.10;;;;;;;;;;5034869;28;20098;-81
2021/05/28 03:17:31;;;;;;;0.20;0.20;;;;;;;;;;5049777;28;20037;-83
2021/05/28 03:19:58;;;;;;;0.10;0.10;;;;;;;;;;5049849;28;20042;-82
2021/05/28 03:25:08;;;;;;;0.35;0.35;;;;;;;;;;5048471;28;20037;-82
2021/05/28 03:27:34;;;;;;;0.20;0.20;;;;;;;;;;5049571;28;20068;-82
2021/05/28 03:30:00;;;;;;;0.20;0.20;;;;;;;;;;5034127;28;20042;-83
2021/05/28 03:32:26;;;;;;;0.10;0.10;;;;;;;;;;5034465;28;20116;-81
2021/05/28 03:34:53;;;;;;;0.10;0.10;;;;;;;;;;5049804;28;20090;-82
2021/05/28 03:37:19;;;;;;;0.20;0.20;;;;;;;;;;5034225;28;20045;-83
2021/05/28 03:39:45;;;;;;;0.55;0.55;;;;;;;;;;5034011;28;20053;-82
2021/05/28 03:42:11;;;;;;;0.55;0.20;;;;;;;;;;5049426;28;20037;-81
2021/05/28 03:44:37;;;;;;;0.10;0.10;;;;;;;;;;5049342;28;20033;-82
2021/05/28 03:47:03;;;;;;;0.10;0.10;;;;;;;;;;5033919;28;20402;-82
2021/05/28 03:49:29;;;;;;;0.10;0.10;;;;;;;;;;5049467;28;20456;-82
2021/05/28 03:51:55;;;;;;;0.20;0.20;;;;;;;;;;5033036;28;20108;-82
2021/05/28 03:54:21;;;;;;;0.10;0.10;;;;;;;;;;5034310;28;20120;-82
2021/05/28 03:56:48;;;;;;;0.10;0.10;;;;;;;;;;5033892;28;20064;-83
2021/05/28 03:59:14;;;;;;;0.10;0.10;;;;;;;;;;5032520;28;20053;-82
2021/05/28 04:01:40;;;;;;;0.10;0.10;;;;;;;;;;5033719;28;20112;-82
2021/05/28 04:04:06;;;;;;;0.10;0.10;;;;;;;;;;5033690;28;20378;-81
2021/05/28 04:06:32;;;;;;;0.10;0.10;;;;;;;;;;5048893;28;20040;-82
2021/05/28 04:08:59;;;;;;;0.10;0.10;;;;;;;;;;5048840;28;20045;-82
2021/05/28 04:11:25;;;;;;;0.10;0.10;;;;;;;;;;5032428;28;20041;-81
2021/05/28 04:13:51;;;;;;;0.10;0.10;;;;;;;;;;5033269;28;20041;-82
2021/05/28 04:16:17;;;;;;;0.10;0.10;;;;;;;;;;5033347;28;20113;-81
2021/05/28 04:18:43;;;;;;;0.10;0.10;;;;;;;;;;5033277;28;20069;-81
2021/05/28 04:21:09;;;;;;;0.10;0.10;;;;;;;;;;5033286;28;20072;-82
2021/05/28 04:23:36;;;;;;;0.10;0.10;;;;;;;;;;5032374;28;20497;-82
2021/05/28 04:26:02;;;;;;;0.17;0.17;;;;;;;;;;5048426;28;20033;-81
2021/05/28 04:28:28;;;;;;;0.10;0.10;;;;;;;;;;5048727;28;20071;-81
2021/05/28 04:30:58;;;;;;;0.10;0.10;;;;;;;;;;5033272;28;20215;-82
2021/05/28 04:33:24;;;;;;;0.10;0.10;;;;;;;;;;5033338;28;20030;-82
2021/05/28 04:35:50;;;;;;;0.10;0.10;;;;;;;;;;5048521;28;20046;-82
2021/05/28 04:38:16;;;;;;;0.10;0.10;;;;;;;;;;5048166;28;20049;-81
2021/05/28 04:40:42;;;;;;;0.10;0.10;;;;;;;;;;5048253;28;20048;-81
2021/05/28 04:43:08;;;;;;;0.10;0.10;;;;;;;;;;5048356;28;20079;-82
2021/05/28 04:45:34;;;;;;;0.10;0.10;;;;;;;;;;5032897;28;20041;-82
2021/05/28 04:48:00;;;;;;;0.25;0.25;;;;;;;;;;5032701;28;20034;-82
2021/05/28 04:50:30;;;;;;;0.10;0.10;;;;;;;;;;5048245;28;20080;-82
2021/05/28 04:53:00;;;;;;;0.10;0.10;;;;;;;;;;5031795;28;20056;-82
2021/05/28 04:55:26;;;;;;;0.20;0.20;;;;;;;;;;5048055;28;20152;-84
2021/05/28 04:57:52;;;;;;;0.10;0.10;;;;;;;;;;5031353;28;20120;-81
2021/05/28 05:00:19;;;;;;;0.10;0.10;;;;;;;;;;5031420;28;20041;-82
2021/05/28 05:02:45;;;;;;;0.10;0.10;;;;;;;;;;5047935;28;20045;-82
2021/05/28 05:05:11;;;;;;;0.10;0.10;;;;;;;;;;5048080;28;20041;-82
2021/05/28 05:07:37;;;;;;;0.10;0.10;;;;;;;;;;5047736;28;20152;-82
2021/05/28 05:10:04;;;;;;;0.10;0.10;;;;;;;;;;5047640;28;20687;-82
2021/05/28 05:12:30;;;;;;;0.10;0.10;;;;;;;;;;5032644;28;20043;-80
2021/05/28 05:14:58;;;;;;;0.10;0.10;;;;;;;;;;5031722;28;20067;-80
2021/05/28 05:17:24;;;;;;;0.10;0.10;;;;;;;;;;5031265;28;20149;-82
2021/05/28 05:19:50;;;;;;;0.10;0.10;;;;;;;;;;5047745;28;20043;-82
2021/05/28 05:22:16;;;;;;;0.10;0.10;;;;;;;;;;5047859;28;20064;-82
2021/05/28 05:24:42;;;;;;;0.10;0.10;;;;;;;;;;5032201;28;20473;-81
2021/05/28 05:27:08;;;;;;;0.10;0.10;;;;;;;;;;5047513;28;20033;-83
2021/05/28 05:29:34;;;;;;;0.10;0.10;;;;;;;;;;5047521;28;20603;-81
2021/05/28 05:32:00;;;;;;;0.17;0.17;;;;;;;;;;5047706;28;20076;-81
2021/05/28 05:34:26;;;;;;;0.10;0.10;;;;;;;;;;5031995;28;20183;-83
2021/05/28 05:36:53;;;;;;;3.42;0.30;;;;;;;;;;5047420;28;20501;-82
2021/05/28 05:39:21;;;;;;;0.10;0.10;;;;;;;;;;5030800;28;20053;-82
2021/05/28 05:41:47;;;;;;;0.10;0.10;;;;;;;;;;5031077;28;20045;-82
2021/05/28 05:44:14;;;;;;;0.10;0.10;;;;;;;;;;5047426;28;20048;-82
2021/05/28 05:46:40;;;;;;;0.10;0.10;;;;;;;;;;5030911;28;20041;-83
2021/05/28 05:49:06;;;;;;;0.15;0.15;;;;;;;;;;5030793;28;20566;-81
2021/05/28 05:51:32;;;;;;;0.10;0.10;;;;;;;;;;5047404;28;20041;-83
2021/05/28 05:53:58;;;;;;;0.10;0.10;;;;;;;;;;5047561;28;20121;-83
2021/05/28 05:56:25;;;;;;;0.10;0.10;;;;;;;;;;5047427;28;20041;-83
2021/05/28 05:58:51;;;;;;;0.10;0.10;;;;;;;;;;5047113;28;20103;-85
2021/05/28 06:01:17;;;;;;;0.20;0.20;;;;;;;;;;5030717;28;20465;-83
2021/05/28 06:03:43;;;;;;;0.10;0.10;;;;;;;;;;5047442;28;20469;-82
2021/05/28 06:06:09;;;;;;;0.20;0.20;;;;;;;;;;5031600;28;20041;-81
2021/05/28 06:08:35;;;;;;;0.10;0.10;;;;;;;;;;5030623;28;20069;-82
2021/05/28 06:11:03;;;;;;;0.10;0.10;;;;;;;;;;5031919;28;20068;-82
2021/05/28 06:13:29;;;;;;;0.10;0.10;;;;;;;;;;5032068;28;20084;-81
2021/05/28 06:15:55;;;;;;;0.10;0.10;;;;;;;;;;5031878;28;20045;-82
2021/05/28 06:18:21;;;;;;;0.10;0.10;;;;;;;;;;5031674;28;20033;-84
2021/05/28 06:20:47;;;;;;;0.10;0.10;;;;;;;;;;5047023;28;20033;-85
2021/05/28 06:23:14;;;;;;;0.20;0.20;;;;;;;;;;5047079;28;20045;-84
2021/05/28 06:25:45;;;;;;;0.20;0.20;;;;;;;;;;5047096;28;20038;-83
2021/05/28 06:28:11;;;;;;;0.20;0.20;;;;;;;;;;5045209;28;20489;-82
2021/05/28 06:30:37;;;;;;;0.13;0.13;;;;;;;;;;5030898;28;20091;-83
2021/05/28 06:33:05;;;;;;;0.10;0.10;;;;;;;;;;5031473;28;20037;-82
2021/05/28 06:35:31;;;;;;;0.10;0.10;;;;;;;;;;5031644;28;20072;-82
2021/05/28 06:37:57;;;;;;;0.10;0.10;;;;;;;;;;5030515;28;20060;-83
2021/05/28 06:40:23;;;;;;;0.20;0.20;;;;;;;;;;5031374;28;20072;-83
2021/05/28 06:42:49;;;;;;;0.20;0.20;;;;;;;;;;5046870;28;20041;-83
2021/05/28 06:45:18;;;;;;;0.10;0.10;;;;;;;;;;5046934;28;20044;-83
2021/05/28 06:47:45;;;;;;;0.10;0.10;;;;;;;;;;5048494;28;20497;-82
2021/05/28 06:50:13;;;;;;;0.10;0.10;;;;;;;;;;5050427;28;20045;-83
2021/05/28 06:52:39;;;;;;;0.10;0.10;;;;;;;;;;5034739;28;20045;-84
2021/05/28 06:55:05;;;;;;;0.10;0.10;;;;;;;;;;5035016;28;20034;-83
2021/05/28 06:57:31;;;;;;;0.10;0.10;;;;;;;;;;5034720;28;20049;-83
2021/05/28 06:59:59;;;;;;;0.10;0.10;;;;;;;;;;5033593;28;20068;-84
2021/05/28 07:02:25;;;;;;;0.10;0.10;;;;;;;;;;5034723;28;20091;-83
2021/05/28 07:04:51;;;;;;;0.10;0.10;;;;;;;;;;5050085;28;20041;-83
2021/05/28 07:07:17;;;;;;;0.10;0.10;;;;;;;;;;5033187;28;20049;-83
2021/05/28 07:09:44;;;;;;;0.15;0.15;;;;;;;;;;5033444;28;20042;-82
2021/05/28 07:12:11;;;;;;;0.10;0.10;;;;;;;;;;5033615;28;20037;-84
2021/05/28 07:14:37;;;;;;;0.10;0.10;;;;;;;;;;5033497;28;20045;-83
2021/05/28 07:17:03;;;;;;;0.10;0.10;;;;;;;;;;5034557;28;20069;-83
2021/05/28 07:19:29;;;;;;;0.10;0.10;;;;;;;;;;5034480;28;20127;-83
2021/05/28 07:21:55;;;;;;;0.10;0.10;;;;;;;;;;5049909;28;20061;-83
2021/05/28 07:24:21;;;;;;;0.10;0.10;;;;;;;;;;5033129;28;20076;-84
2021/05/28 07:26:47;;;;;;;0.10;0.10;;;;;;;;;;5034619;28;20061;-85
2021/05/28 07:29:13;;;;;;;0.10;0.10;;;;;;;;;;5049719;28;20083;-83
2021/05/28 07:31:39;;;;;;;0.10;0.10;;;;;;;;;;5033100;28;20045;-83
2021/05/28 07:34:05;;;;;;;0.10;0.10;;;;;;;;;;5033202;28;20060;-83
2021/05/28 07:36:31;;;;;;;0.20;0.20;;;;;;;;;;5049483;28;20037;-83
2021/05/28 07:38:58;;;;;;;0.10;0.10;;;;;;;;;;5032794;28;20054;-83
2021/05/28 07:41:25;;;;;;;0.10;0.10;;;;;;;;;;5034139;28;20438;-83
2021/05/28 07:43:51;;;;;;;0.10;0.10;;;;;;;;;;5032927;28;20037;-83
2021/05/28 07:46:17;;;;;;;0.10;0.10;;;;;;;;;;5032904;28;20048;-82
2021/05/28 07:48:43;;;;;;;0.10;0.10;;;;;;;;;;5033895;28;20037;-83
2021/05/28 07:51:09;;;;;;;0.20;0.20;;;;;;;;;;5049670;28;20041;-83
2021/05/28 07:53:35;;;;;;;0.10;0.10;;;;;;;;;;5032938;28;20056;-82
2021/05/28 07:56:10;;;;;;;0.10;0.10;;;;;;;;;;5049286;28;20043;-83
2021/05/28 07:58:36;;;;;;;0.10;0.10;;;;;;;;;;5032732;28;20136;-84
2021/05/28 08:01:02;;;;;;;0.20;0.20;;;;;;;;;;5049018;28;20037;-83
2021/05/28 08:03:28;;;;;;;0.10;0.10;;;;;;;;;;5032505;28;20076;-83
2021/05/28 08:05:55;;;;;;;0.10;0.10;;;;;;;;;;5033656;28;20163;-83
2021/05/28 08:08:27;;;;;;;0.10;0.10;;;;;;;;;;5048903;28;20397;-83
2021/05/28 08:10:53;;;;;;;0.10;0.10;;;;;;;;;;5048269;28;20034;-83
2021/05/28 08:13:19;;;;;;;0.10;0.10;;;;;;;;;;5048749;28;20048;-83
2021/05/28 08:15:46;;;;;;;0.10;0.10;;;;;;;;;;5033567;28;20064;-83
2021/05/28 08:18:12;;;;;;;0.10;0.10;;;;;;;;;;5048697;28;20086;-85
2021/05/28 08:20:38;;;;;;;0.20;0.20;;;;;;;;;;5033575;28;20045;-83
2021/05/28 08:23:04;;;;;;;0.10;0.10;;;;;;;;;;5048690;28;20037;-83
2021/05/28 08:25:30;;;;;;;0.20;0.20;;;;;;;;;;5048685;28;20079;-83
2021/05/28 08:27:56;;;;;;;0.20;0.20;;;;;;;;;;5048543;28;20041;-83
2021/05/28 08:30:22;;;;;;;0.13;0.13;;;;;;;;;;5033229;28;20041;-83
2021/05/28 08:32:48;;;;;;;0.10;0.10;;;;;;;;;;5048580;28;20048;-83
2021/05/28 08:35:14;;;;;;;0.20;0.20;;;;;;;;;;5048461;28;20073;-84
2021/05/28 08:37:41;;;;;;;0.35;0.35;;;;;;;;;;5048606;28;20120;-83
2021/05/28 08:40:07;;;;;;;0.15;0.15;;;;;;;;;;5028943;28;20041;-87
2021/05/28 08:42:33;;;;;;;0.10;0.10;;;;;;;;;;5047980;28;20042;-88
2021/05/28 08:45:00;;;;;;;0.10;0.10;;;;;;;;;;5048255;28;20140;-83
2021/05/28 08:47:26;;;;;;;0.10;0.10;;;;;;;;;;5047974;28;20037;-84
2021/05/28 08:49:52;;;;;;;0.10;0.10;;;;;;;;;;5031620;28;20044;-82
2021/05/28 08:52:19;;;;;;;0.10;0.10;;;;;;;;;;5048206;28;20449;-84
2021/05/28 08:54:45;;;;;;;0.20;0.20;;;;;;;;;;5032596;28;20038;-83
2021/05/28 08:57:11;;;;;;;0.43;0.30;;;;;;;;;;5032661;28;20125;-83
2021/05/28 08:59:37;;;;;;;0.10;0.10;;;;;;;;;;5032603;28;20408;-83
2021/05/28 09:02:03;;;;;;;0.10;0.10;;;;;;;;;;5032605;28;20037;-85
2021/05/28 09:04:29;;;;;;;0.43;0.20;;;;;;;;;;5047847;28;20044;-83
2021/05/28 09:06:55;;;;;;;0.10;0.10;;;;;;;;;;5047845;28;20117;-84
2021/05/28 09:09:27;;;;;;;0.10;0.10;;;;;;;;;;5047253;28;20489;-84
2021/05/28 09:11:57;;;;;;;0.10;0.10;;;;;;;;;;5031334;28;20044;-83
2021/05/28 09:14:29;;;;;;;0.10;0.10;;;;;;;;;;5047617;28;20033;-85
2021/05/28 09:16:56;;;;;;;0.10;0.10;;;;;;;;;;5032444;28;20120;-83
2021/05/28 09:19:25;;;;;;;0.10;0.10;;;;;;;;;;5047676;28;20040;-83
2021/05/28 09:21:59;;;;;;;0.10;0.10;;;;;;;;;;5032387;28;20553;-82
2021/05/28 09:24:26;;;;;;;0.10;0.10;;;;;;;;;;5047748;28;20067;-82
2021/05/28 09:26:52;;;;;;;0.10;0.10;;;;;;;;;;5047685;28;20033;-83
2021/05/28 09:29:18;;;;;;;0.20;0.20;;;;;;;;;;5030755;28;20136;-83
2021/05/28 09:31:44;;;;;;;0.10;0.10;;;;;;;;;;5047690;28;20470;-84
2021/05/28 09:34:10;;;;;;;0.20;0.20;;;;;;;;;;5047548;28;20099;-84
2021/05/28 09:36:36;;;;;;;0.10;0.10;;;;;;;;;;5030983;28;20037;-84
2021/05/28 09:39:07;;;;;;;0.10;0.10;;;;;;;;;;5047315;28;20057;-85
2021/05/28 09:41:57;;;;;;;0.10;0.10;;;;;;;;;;5030943;28;20041;-84
2021/05/28 09:44:23;;;;;;;0.10;0.10;;;;;;;;;;5030939;28;20087;-84
2021/05/28 09:47:11;;;;;;;0.10;0.10;;;;;;;;;;5047389;28;20037;-84
2021/05/28 09:49:50;;;;;;;0.10;0.10;;;;;;;;;;5032048;28;20033;-85
2021/05/28 09:52:20;;;;;;;0.10;0.10;;;;;;;;;;5047418;28;20040;-83
2021/05/28 09:55:05;;;;;;;0.10;0.10;;;;;;;;;;5047333;28;20034;-83
2021/05/28 09:57:38;;;;;;;0.10;0.10;;;;;;;;;;5030662;28;20060;-84
2021/05/28 10:00:06;;;;;;;0.10;0.10;;;;;;;;;;5047414;28;20069;-83
2021/05/28 10:02:34;;;;;;;0.10;0.10;;;;;;;;;;5048262;28;20033;-83
2021/05/28 10:05:00;;;;;;;0.10;0.10;;;;;;;;;;5030779;28;20116;-82
2021/05/28 10:07:27;;;;;;;0.10;0.10;;;;;;;;;;5031939;28;20048;-83
2021/05/28 10:09:53;;;;;;;0.98;0.20;;;;;;;;;;5031672;28;20052;-82
2021/05/28 10:12:20;;;;;;;0.10;0.10;;;;;;;;;;5031934;28;20487;-82
2021/05/28 10:14:46;;;;;;;0.20;0.20;;;;;;;;;;5047499;28;20483;-82
2021/05/28 10:17:12;;;;;;;0.17;0.17;;;;;;;;;;5047317;28;20045;-82
2021/05/28 10:19:39;;;;;;;0.10;0.10;;;;;;;;;;5047157;28;20053;-82
2021/05/28 10:22:05;;;;;;;0.20;0.20;;;;;;;;;;5043785;28;20037;-82
2021/05/28 10:24:31;;;;;;;0.22;0.22;;;;;;;;;;5033181;28;20061;-82
2021/05/28 10:26:57;;;;;;;0.22;0.22;;;;;;;;;;5035348;28;20542;-82
2021/05/28 10:29:24;;;;;;;0.10;0.10;;;;;;;;;;5050891;28;20045;-82
2021/05/28 10:32:00;;;;;;;0.22;0.20;;;;;;;;;;5050723;28;20049;-82
2021/05/28 10:34:27;;;;;;;0.10;0.10;;;;;;;;;;5050802;28;20037;-82
2021/05/28 10:36:54;;;;;;;0.10;0.10;;;;;;;;;;5050389;28;20038;-82
2021/05/28 10:39:21;;;;;;;0.20;0.20;;;;;;;;;;5030916;28;20113;-86
2021/05/28 10:41:55;;;;;;;0.10;0.10;;;;;;;;;;5030761;28;20457;-82
2021/05/28 10:44:22;;;;;;;0.20;0.20;;;;;;;;;;5030053;28;20087;-82
2021/05/28 10:46:55;;;;;;;0.10;0.10;;;;;;;;;;5030536;28;20044;-83
2021/05/28 10:49:41;;;;;;;0.20;0.20;;;;;;;;;;5030335;28;20033;-82
2021/05/28 10:52:07;;;;;;;0.20;0.20;;;;;;;;;;5013960;28;20041;-83
2021/05/28 10:54:34;;;;;;;0.20;0.20;;;;;;;;;;5015116;28;20126;-83
2021/05/28 10:57:18;;;;;;;0.20;0.20;;;;;;;;;;5030370;28;20484;-83
2021/05/28 10:59:45;;;;;;;0.13;0.13;;;;;;;;;;5015033;28;20128;-82
2021/05/28 11:02:11;;;;;;;0.20;0.20;;;;;;;;;;5030050;28;20089;-83
2021/05/28 11:04:40;;;;;;;0.20;0.20;;;;;;;;;;5030227;28;20042;-83
2021/05/28 11:07:06;;;;;;;0.20;0.20;;;;;;;;;;5014955;28;20057;-83
2021/05/28 11:09:42;;;;;;;0.20;0.20;;;;;;;;;;5014919;28;20100;-83
2021/05/28 11:12:08;;;;;;;0.20;0.20;;;;;;;;;;5014876;28;20437;-83
2021/05/28 11:14:36;;;;;;;0.10;0.10;;;;;;;;;;5029936;28;20046;-84
2021/05/28 11:17:03;;;;;;;0.10;0.10;;;;;;;;;;5014736;28;20042;-84
2021/05/28 11:19:30;;;;;;;0.10;0.10;;;;;;;;;;5013598;28;20046;-84
2021/05/28 11:22:05;;;;;;;0.20;0.20;;;;;;;;;;5013581;28;20465;-84
2021/05/28 11:24:46;;;;;;;0.15;0.15;;;;;;;;;;5013536;28;20034;-84
2021/05/28 11:27:13;;;;;;;0.20;0.20;;;;;;;;;;5014527;28;20038;-85
2021/05/28 11:29:39;;;;;;;0.10;0.10;;;;;;;;;;5013498;28;20050;-82
2021/05/28 11:32:28;;;;;;;0.20;0.20;;;;;;;;;;5014420;28;20484;-82
2021/05/28 11:35:13;;;;;;;0.20;0.20;;;;;;;;;;5013492;28;20061;-82
2021/05/28 11:37:40;;;;;;;0.10;0.10;;;;;;;;;;5014316;28;20037;-82
2021/05/28 11:40:16;;;;;;;0.10;0.10;;;;;;;;;;5029383;28;20054;-82
2021/05/28 11:42:42;;;;;;;0.10;0.10;;;;;;;;;;5029528;28;20500;-82
2021/05/28 11:45:09;;;;;;;0.10;0.10;;;;;;;;;;5046548;28;20033;-86
2021/05/28 11:47:37;;;;;;;0.10;0.10;;;;;;;;;;5032804;28;20500;-87
2021/05/28 11:50:11;;;;;;;0.10;0.10;;;;;;;;;;5016289;28;20136;-85
2021/05/28 11:52:37;;;;;;;0.10;0.10;;;;;;;;;;5032829;28;20064;-85
2021/05/28 11:55:04;;;;;;;0.13;0.13;;;;;;;;;;5032772;28;20033;-85
2021/05/28 11:57:30;;;;;;;0.10;0.10;;;;;;;;;;5031181;28;20116;-84
2021/05/28 11:59:57;;;;;;;0.10;0.10;;;;;;;;;;5031437;28;20076;-83
2021/05/28 12:02:35;;;;;;;0.20;0.20;;;;;;;;;;5048896;28;20045;-84
2021/05/28 12:05:01;;;;;;;0.10;0.10;;;;;;;;;;5032494;28;20508;-84
2021/05/28 12:07:28;;;;;;;0.10;0.10;;;;;;;;;;5048927;28;20073;-84
2021/05/28 12:10:20;;;;;;;0.20;0.20;;;;;;;;;;5032444;28;20056;-82
2021/05/28 12:13:03;;;;;;;0.13;0.13;;;;;;;;;;5030897;28;20049;-82
2021/05/28 12:15:36;;;;;;;0.10;0.10;;;;;;;;;;5048834;28;20037;-82
2021/05/28 12:18:23;;;;;;;0.10;0.10;;;;;;;;;;5048698;28;20087;-82
2021/05/28 12:20:54;;;;;;;0.10;0.10;;;;;;;;;;5033398;28;20051;-82
2021/05/28 12:23:20;;;;;;;0.20;0.20;;;;;;;;;;5048691;28;20045;-82
2021/05/28 12:26:05;;;;;;;0.10;0.10;;;;;;;;;;5033302;28;20037;-81
2021/05/28 12:28:32;;;;;;;0.10;0.10;;;;;;;;;;5032036;28;20113;-82
2021/05/28 12:31:01;;;;;;;0.10;0.10;;;;;;;;;;5033156;28;20114;-81
2021/05/28 12:33:29;;;;;;;0.20;0.20;;;;;;;;;;5033090;28;20469;-81
2021/05/28 12:35:55;;;;;;;0.30;0.30;;;;;;;;;;5048416;28;20436;-82
2021/05/28 12:38:22;;;;;;;0.10;0.10;;;;;;;;;;5048287;28;20489;-84
2021/05/28 12:40:48;;;;;;;0.10;0.10;;;;;;;;;;5048802;28;20065;-82
2021/05/28 12:43:22;;;;;;;0.20;0.20;;;;;;;;;;5031875;28;20497;-82
2021/05/28 12:45:48;;;;;;;0.10;0.10;;;;;;;;;;5030826;28;20068;-82
2021/05/28 12:48:14;;;;;;;0.10;0.10;;;;;;;;;;5032613;28;20042;-82
2021/05/28 12:50:41;;;;;;;0.10;0.10;;;;;;;;;;5031528;28;20041;-82
2021/05/28 12:53:17;;;;;;;0.10;0.10;;;;;;;;;;5031600;28;20041;-82
2021/05/28 12:55:50;;;;;;;0.10;0.10;;;;;;;;;;5032749;28;20042;-81
2021/05/28 12:58:29;;;;;;;0.20;0.20;;;;;;;;;;5021187;28;20100;-82
2021/05/28 13:00:56;;;;;;;0.10;0.10;;;;;;;;;;5037449;28;20124;-81
2021/05/28 13:03:31;;;;;;;0.10;0.10;;;;;;;;;;5012052;28;20065;-82
2021/05/28 13:05:57;;;;;;;0.10;0.10;;;;;;;;;;5012834;28;20108;-81
2021/05/28 13:08:31;;;;;;;0.10;0.10;;;;;;;;;;5012763;28;20038;-81
2021/05/28 13:10:57;;;;;;;0.20;0.20;;;;;;;;;;5011656;28;20049;-82
2021/05/28 13:13:23;;;;;;;0.10;0.10;;;;;;;;;;5011477;28;20046;-83
2021/05/28 13:15:50;;;;;;;0.15;0.15;;;;;;;;;;5011723;28;20040;-84
2021/05/28 13:18:17;;;;;;;0.20;0.20;;;;;;;;;;5011473;28;20049;-83
2021/05/28 13:20:44;;;;;;;0.10;0.10;;;;;;;;;;5011692;28;20257;-83
2021/05/28 13:23:20;;;;;;;0.10;0.10;;;;;;;;;;5011449;28;20042;-85
2021/05/28 13:25:47;;;;;;;0.10;0.10;;;;;;;;;;5027486;28;20265;-83
2021/05/28 13:28:14;;;;;;;0.10;0.10;;;;;;;;;;5011159;28;20034;-84
2021/05/28 13:30:41;;;;;;;0.10;0.10;;;;;;;;;;5011121;28;20065;-84
2021/05/28 13:33:27;;;;;;;0.20;0.20;;;;;;;;;;5012399;28;20038;-84
2021/05/28 13:35:54;;;;;;;0.10;0.10;;;;;;;;;;5011270;28;20073;-84
2021/05/28 13:38:20;;;;;;;0.22;0.22;;;;;;;;;;5010805;28;20453;-84
2021/05/28 13:40:46;;;;;;;0.30;0.30;;;;;;;;;;5011326;28;20042;-84
2021/05/28 13:43:17;;;;;;;0.32;0.32;;;;;;;;;;5011207;28;20048;-84
2021/05/28 13:45:43;;;;;;;0.40;0.40;;;;;;;;;;5011257;28;20034;-84
2021/05/28 13:48:09;;;;;;;2.20;0.50;;;;;;;;;;5012401;28;20045;-84
2021/05/28 13:50:35;;;;;;;0.10;0.10;;;;;;;;;;5011079;28;20128;-84
2021/05/28 13:53:02;;;;;;;0.10;0.10;;;;;;;;;;5011153;28;20049;-84
2021/05/28 13:55:28;;;;;;;0.20;0.20;;;;;;;;;;5027804;28;20038;-84
2021/05/28 13:57:54;;;;;;;0.60;0.60;;;;;;;;;;5015382;28;20070;-84
2021/05/28 14:00:20;;;;;;;0.10;0.10;;;;;;;;;;5015204;28;20033;-84
2021/05/28 14:02:46;;;;;;;0.10;0.10;;;;;;;;;;5016222;28;20034;-84
2021/05/28 14:05:13;;;;;;;0.10;0.10;;;;;;;;;;5016215;28;20044;-84
2021/05/28 14:07:39;;;;;;;0.20;0.20;;;;;;;;;;5016089;28;20069;-84
2021/05/28 14:10:06;;;;;;;0.20;0.20;;;;;;;;;;5014858;28;20052;-84
2021/05/28 14:12:32;;;;;;;0.10;0.10;;;;;;;;;;5015116;28;20084;-85
2021/05/28 14:14:58;;;;;;;0.20;0.20;;;;;;;;;;5014922;28;20470;-84
2021/05/28 14:17:24;;;;;;;0.20;0.20;;;;;;;;;;5031281;28;20038;-84
2021/05/28 14:19:51;;;;;;;0.20;0.20;;;;;;;;;;5031224;28;20053;-84
2021/05/28 14:22:17;;;;;;;0.20;0.20;;;;;;;;;;5031146;28;20056;-84
2021/05/28 14:24:43;;;;;;;0.20;0.20;;;;;;;;;;5014643;28;20069;-84
2021/05/28 14:27:09;;;;;;;0.10;0.10;;;;;;;;;;5031014;28;20467;-84
2021/05/28 14:29:35;;;;;;;0.30;0.22;;;;;;;;;;5030920;28;20041;-84
2021/05/28 14:32:01;;;;;;;0.10;0.10;;;;;;;;;;5014438;28;20065;-84
2021/05/28 14:34:27;;;;;;;0.20;0.20;;;;;;;;;;5030921;28;20058;-83
2021/05/28 14:36:53;;;;;;;0.10;0.10;;;;;;;;;;5014600;28;20375;-84
2021/05/28 14:39:19;;;;;;;0.10;0.10;;;;;;;;;;5014277;28;20537;-85
2021/05/28 14:41:45;;;;;;;0.10;0.10;;;;;;;;;;5014390;28;20504;-84
2021/05/28 14:44:11;;;;;;;0.10;0.10;;;;;;;;;;4997954;28;20117;-82
2021/05/28 14:46:38;;;;;;;0.20;0.20;;;;;;;;;;5014261;28;20037;-82
2021/05/28 14:49:04;;;;;;;0.15;0.15;;;;;;;;;;5015250;28;20477;-82